Time;durP1;ratioP1;P1;durP2;ratioP2;P2;SDS_P1;SDS_P2;PMS_P1;PMS_P2;Temp;Humidity;BMP_temperature;BMP_pressure;BME280_temperature;BME280_humidity;BME280_pressure;Samples;Min_cycle;Max_cycle;Signal;HPM_P1;HPM_P2
2022/01/03 00:01:34;;;;;;;109.47;98.68;;;9.70;99.90;;;;;;5017207;28;20508;-83
2022/01/03 00:04:01;;;;;;;110.72;99.55;;;9.70;99.90;;;;;;5017519;28;20483;-83
2022/01/03 00:06:28;;;;;;;110.32;99.03;;;9.80;99.90;;;;;;4997900;28;20055;-84
2022/01/03 00:08:57;;;;;;;110.07;98.68;;;9.70;99.90;;;;;;5009521;28;22245;-83
2022/01/03 00:11:24;;;;;;;110.05;98.85;;;9.80;99.90;;;;;;5000872;28;20499;-83
2022/01/03 00:13:52;;;;;;;109.38;97.80;;;9.80;99.90;;;;;;5016661;28;20253;-83
2022/01/03 00:16:22;;;;;;;111.43;99.85;;;9.80;99.90;;;;;;5017204;28;20065;-83
2022/01/03 00:18:52;;;;;;;113.10;101.03;;;9.90;99.90;;;;;;5000565;28;20050;-83
2022/01/03 00:21:20;;;;;;;110.45;99.28;;;9.90;99.90;;;;;;5017259;28;20078;-83
2022/01/03 00:23:52;;;;;;;110.20;98.88;;;10.00;99.90;;;;;;5017084;28;20056;-83
2022/01/03 00:26:25;;;;;;;111.90;100.10;;;10.00;99.90;;;;;;5000138;28;20137;-82
2022/01/03 00:28:58;;;;;;;112.60;100.80;;;10.10;99.90;;;;;;5000253;28;20069;-83
2022/01/03 00:31:33;;;;;;;112.20;100.05;;;10.10;99.80;;;;;;5000504;28;20046;-83
2022/01/03 00:34:02;;;;;;;112.82;100.88;;;10.10;99.70;;;;;;4981185;28;20072;-82
2022/01/03 00:36:30;;;;;;;112.00;100.03;;;10.20;99.70;;;;;;4997470;28;20097;-82
2022/01/03 00:38:58;;;;;;;112.78;100.90;;;10.20;99.60;;;;;;4996894;28;20568;-83
2022/01/03 00:41:25;;;;;;;111.97;99.95;;;10.20;99.60;;;;;;4996940;28;20042;-83
2022/01/03 00:43:55;;;;;;;111.18;99.15;;;10.30;99.60;;;;;;5010079;28;20152;-83
2022/01/03 00:46:23;;;;;;;114.53;102.03;;;10.30;99.50;;;;;;4980680;28;20081;-82
2022/01/03 00:48:50;;;;;;;113.55;101.18;;;10.30;99.50;;;;;;5005677;28;20050;-82
2022/01/03 00:51:19;;;;;;;114.93;102.32;;;10.30;99.30;;;;;;4996858;28;20057;-83
2022/01/03 00:53:47;;;;;;;115.22;101.38;;;10.30;99.40;;;;;;5013623;28;20069;-82
2022/01/03 00:56:18;;;;;;;113.57;101.32;;;10.30;99.40;;;;;;4997237;28;20062;-82
2022/01/03 00:58:53;;;;;;;114.00;101.50;;;10.30;99.40;;;;;;5013260;28;20121;-82
2022/01/03 01:01:24;;;;;;;112.80;100.55;;;10.30;99.40;;;;;;4997287;28;20101;-83
2022/01/03 01:04:19;;;;;;;111.07;99.18;;;10.30;99.30;;;;;;4981592;28;20443;-83
2022/01/03 01:06:53;;;;;;;115.15;100.65;;;10.30;99.10;;;;;;4980597;28;20521;-83
2022/01/03 01:09:22;;;;;;;117.82;102.03;;;10.30;99.20;;;;;;4980311;28;20050;-82
2022/01/03 01:11:53;;;;;;;111.40;99.88;;;10.30;99.10;;;;;;4980256;28;20109;-82
2022/01/03 01:14:21;;;;;;;113.28;101.05;;;10.30;99.00;;;;;;4979703;28;20077;-82
2022/01/03 01:16:50;;;;;;;115.25;101.13;;;10.30;99.10;;;;;;4980151;28;20145;-82
2022/01/03 01:19:19;;;;;;;112.07;100.13;;;10.30;99.20;;;;;;4980228;28;20050;-82
2022/01/03 01:21:49;;;;;;;111.55;100.00;;;10.30;99.20;;;;;;4980163;28;20051;-81
2022/01/03 01:24:17;;;;;;;114.53;102.07;;;10.30;99.10;;;;;;4980078;28;20057;-82
2022/01/03 01:29:29;;;;;;;112.00;99.32;;;10.30;99.10;;;;;;4980102;28;20057;-82
2022/01/03 01:32:02;;;;;;;112.75;100.68;;;10.30;99.10;;;;;;4980053;28;20050;-82
2022/01/03 01:34:31;;;;;;;112.50;100.53;;;10.30;99.10;;;;;;4996153;28;20872;-82
2022/01/03 01:37:02;;;;;;;113.03;100.90;;;10.30;99.10;;;;;;4979843;28;20065;-82
2022/01/03 01:39:33;;;;;;;116.05;103.30;;;10.30;99.10;;;;;;4978991;28;20145;-81
2022/01/03 01:42:04;;;;;;;113.72;100.38;;;10.40;99.10;;;;;;4979859;28;20042;-82
2022/01/03 01:44:35;;;;;;;113.20;100.90;;;10.30;99.10;;;;;;4979730;28;20058;-82
2022/01/03 01:47:07;;;;;;;116.95;102.38;;;10.30;99.10;;;;;;4979485;28;20580;-82
2022/01/03 01:49:39;;;;;;;114.65;101.25;;;10.30;99.10;;;;;;4995949;28;20137;-82
2022/01/03 01:52:32;;;;;;;112.43;100.32;;;10.30;99.00;;;;;;4979565;28;20047;-82
2022/01/03 01:55:06;;;;;;;112.78;100.13;;;10.30;99.10;;;;;;4979711;28;20054;-82
2022/01/03 01:57:48;;;;;;;114.30;101.70;;;10.30;99.00;;;;;;4979543;28;20057;-82
2022/01/03 02:00:18;;;;;;;112.57;100.60;;;10.30;98.90;;;;;;4991849;28;20133;-81
2022/01/03 02:03:07;;;;;;;116.30;102.47;;;10.30;98.80;;;;;;4999180;28;20566;-81
2022/01/03 02:05:38;;;;;;;113.43;101.07;;;10.30;98.90;;;;;;4999057;28;20063;-82
2022/01/03 02:08:13;;;;;;;112.50;100.63;;;10.30;98.80;;;;;;4998772;28;20101;-82
2022/01/03 02:10:43;;;;;;;112.15;100.10;;;10.30;98.70;;;;;;5015583;28;20045;-81
2022/01/03 02:13:12;;;;;;;112.65;100.40;;;10.30;98.70;;;;;;4998983;28;20046;-81
2022/01/03 02:15:45;;;;;;;111.15;99.53;;;10.30;98.80;;;;;;4999117;28;20136;-80
2022/01/03 02:18:13;;;;;;;112.75;100.57;;;10.30;98.70;;;;;;4999114;28;20058;-82
2022/01/03 02:20:42;;;;;;;113.20;101.05;;;10.30;98.90;;;;;;4998981;28;20145;-82
2022/01/03 02:23:12;;;;;;;113.63;101.10;;;10.30;98.70;;;;;;4998826;28;20053;-81
2022/01/03 02:25:43;;;;;;;112.95;99.80;;;10.30;98.70;;;;;;4999068;28;20152;-81
2022/01/03 02:28:11;;;;;;;114.65;101.75;;;10.30;98.60;;;;;;4995342;28;20101;-81
2022/01/03 02:30:38;;;;;;;115.13;99.72;;;10.30;98.60;;;;;;4979035;28;20057;-81
2022/01/03 02:33:07;;;;;;;112.53;100.30;;;10.20;98.60;;;;;;4991920;28;20138;-82
2022/01/03 02:35:36;;;;;;;113.20;100.60;;;10.20;98.70;;;;;;5015467;28;20075;-81
2022/01/03 02:38:05;;;;;;;113.40;100.75;;;10.20;98.50;;;;;;4998366;28;20965;-81
2022/01/03 02:40:33;;;;;;;113.15;100.90;;;10.20;98.60;;;;;;4998726;28;20046;-81
2022/01/03 02:43:00;;;;;;;112.38;100.18;;;10.20;98.50;;;;;;4998787;28;20045;-81
2022/01/03 02:45:28;;;;;;;112.10;99.97;;;10.20;98.60;;;;;;5014826;28;20049;-81
2022/01/03 02:48:00;;;;;;;113.88;101.55;;;10.10;98.50;;;;;;4998241;28;20057;-81
2022/01/03 02:50:30;;;;;;;114.47;101.82;;;10.20;98.50;;;;;;5013314;28;20505;-81
2022/01/03 02:52:57;;;;;;;116.30;101.57;;;10.10;98.60;;;;;;4998546;28;20048;-81
2022/01/03 02:55:27;;;;;;;116.40;102.20;;;10.10;98.50;;;;;;4998447;28;20608;-82
2022/01/03 02:57:58;;;;;;;112.85;100.80;;;10.10;98.50;;;;;;4981539;28;20112;-81
2022/01/03 03:00:28;;;;;;;118.78;101.97;;;10.10;98.50;;;;;;4982118;28;20039;-82
2022/01/03 03:02:56;;;;;;;114.28;102.05;;;10.10;98.40;;;;;;4997530;28;20057;-81
2022/01/03 03:05:25;;;;;;;115.28;100.85;;;10.10;98.40;;;;;;4981814;28;20054;-81
2022/01/03 03:07:53;;;;;;;112.78;100.72;;;10.10;98.40;;;;;;4985618;28;20050;-80
2022/01/03 03:10:23;;;;;;;120.85;103.28;;;10.10;98.40;;;;;;5001792;28;20054;-81
2022/01/03 03:12:54;;;;;;;114.57;101.57;;;10.10;98.30;;;;;;5006598;28;20046;-81
2022/01/03 03:15:23;;;;;;;118.50;100.65;;;10.10;98.30;;;;;;4998196;28;20049;-81
2022/01/03 03:17:51;;;;;;;115.97;101.35;;;10.10;98.40;;;;;;4998421;28;20097;-81
2022/01/03 03:20:20;;;;;;;113.55;101.10;;;10.10;98.30;;;;;;4998099;28;20144;-81
2022/01/03 03:22:49;;;;;;;115.47;101.78;;;10.10;98.20;;;;;;4998228;28;20062;-81
2022/01/03 03:25:20;;;;;;;115.10;101.50;;;10.10;98.30;;;;;;4997944;28;20406;-81
2022/01/03 03:27:50;;;;;;;115.60;103.25;;;10.10;98.20;;;;;;4981424;28;20061;-81
2022/01/03 03:30:25;;;;;;;113.80;101.35;;;10.10;98.30;;;;;;4982025;28;20050;-81
2022/01/03 03:32:54;;;;;;;120.40;101.32;;;10.10;98.20;;;;;;4982092;28;20054;-82
2022/01/03 03:35:21;;;;;;;119.13;102.13;;;10.10;98.20;;;;;;4981929;28;20081;-82
2022/01/03 03:37:49;;;;;;;114.60;102.05;;;10.10;98.30;;;;;;4981344;28;20054;-81
2022/01/03 03:40:17;;;;;;;114.07;101.63;;;10.10;98.40;;;;;;4999563;28;20560;-81
2022/01/03 03:42:44;;;;;;;118.70;101.75;;;10.10;98.20;;;;;;5001179;28;20077;-81
2022/01/03 03:45:12;;;;;;;115.18;102.55;;;10.00;98.20;;;;;;5017591;28;20504;-81
2022/01/03 03:47:42;;;;;;;117.07;101.95;;;10.10;98.20;;;;;;5001280;28;20507;-81
2022/01/03 03:50:11;;;;;;;121.82;103.70;;;10.10;98.30;;;;;;5003088;28;20064;-83
2022/01/03 03:52:38;;;;;;;113.50;100.80;;;10.10;98.30;;;;;;5000818;28;20065;-81
2022/01/03 03:55:07;;;;;;;118.10;100.32;;;10.10;98.20;;;;;;5000929;28;20593;-81
2022/01/03 03:57:34;;;;;;;113.68;100.97;;;10.10;98.50;;;;;;5000568;28;20060;-81
2022/01/03 04:00:04;;;;;;;117.72;102.35;;;10.10;98.40;;;;;;4997738;28;20054;-81
2022/01/03 04:02:41;;;;;;;119.63;101.65;;;10.10;98.40;;;;;;4996539;28;20042;-81
2022/01/03 04:05:12;;;;;;;120.47;100.57;;;10.10;98.40;;;;;;4981432;28;20054;-81
2022/01/03 04:07:41;;;;;;;115.63;101.05;;;10.10;98.40;;;;;;4980942;28;20050;-81
2022/01/03 04:10:11;;;;;;;117.53;101.22;;;10.10;98.50;;;;;;4981143;28;20047;-81
2022/01/03 04:12:40;;;;;;;120.95;103.00;;;10.10;98.50;;;;;;4980966;28;20051;-81
2022/01/03 04:15:09;;;;;;;115.45;102.75;;;10.10;98.50;;;;;;4982620;28;20508;-81
2022/01/03 04:17:37;;;;;;;117.03;101.65;;;10.10;98.50;;;;;;5000727;28;20068;-81
2022/01/03 04:20:07;;;;;;;114.28;101.30;;;10.10;98.50;;;;;;5000629;28;20046;-81
2022/01/03 04:22:34;;;;;;;114.75;101.38;;;10.10;98.50;;;;;;5000654;28;20440;-81
2022/01/03 04:25:01;;;;;;;118.70;103.20;;;10.20;98.50;;;;;;5000421;28;20058;-81
2022/01/03 04:27:29;;;;;;;116.05;102.20;;;10.20;98.60;;;;;;5000539;28;20050;-81
2022/01/03 04:29:57;;;;;;;117.35;101.55;;;10.20;98.50;;;;;;4997148;28;20548;-81
2022/01/03 04:32:24;;;;;;;122.85;102.13;;;10.20;98.60;;;;;;4997377;28;20050;-81
2022/01/03 04:34:51;;;;;;;119.60;102.75;;;10.20;98.50;;;;;;4980897;28;20053;-81
2022/01/03 04:37:21;;;;;;;116.45;101.82;;;10.20;98.50;;;;;;4980886;28;20054;-80
2022/01/03 04:39:48;;;;;;;116.85;103.15;;;10.30;98.50;;;;;;4980769;28;20174;-81
2022/01/03 04:42:15;;;;;;;117.60;103.00;;;10.20;98.60;;;;;;4980957;28;20086;-81
2022/01/03 04:44:44;;;;;;;117.43;101.03;;;10.20;98.50;;;;;;4996630;28;20054;-81
2022/01/03 04:47:12;;;;;;;117.85;101.10;;;10.30;98.50;;;;;;5013153;28;20492;-81
2022/01/03 04:49:39;;;;;;;121.45;103.13;;;10.20;98.50;;;;;;4996916;28;20521;-81
2022/01/03 04:52:06;;;;;;;118.18;101.55;;;10.30;98.50;;;;;;5013095;28;20046;-81
2022/01/03 04:54:37;;;;;;;117.15;100.50;;;10.30;98.50;;;;;;4997065;28;20066;-81
2022/01/03 04:57:05;;;;;;;120.90;103.28;;;10.30;98.40;;;;;;5016067;28;20137;-81
2022/01/03 04:59:33;;;;;;;118.47;102.88;;;10.30;98.40;;;;;;4999968;28;20069;-81
2022/01/03 05:02:03;;;;;;;116.38;101.63;;;10.30;98.40;;;;;;5016714;28;20077;-81
2022/01/03 05:04:31;;;;;;;117.78;100.85;;;10.30;98.40;;;;;;4999979;28;20135;-81
2022/01/03 05:06:59;;;;;;;118.18;102.45;;;10.30;98.30;;;;;;4996534;28;20603;-80
2022/01/03 05:09:27;;;;;;;117.80;104.30;;;10.30;98.40;;;;;;4980447;28;20125;-81
2022/01/03 05:11:56;;;;;;;123.22;102.82;;;10.30;98.50;;;;;;4980619;28;20054;-81
2022/01/03 05:14:25;;;;;;;117.38;101.18;;;10.30;98.50;;;;;;4996034;28;20050;-81
2022/01/03 05:16:53;;;;;;;117.88;102.75;;;10.30;98.50;;;;;;4996557;28;20050;-81
2022/01/03 05:19:22;;;;;;;124.60;103.10;;;10.30;98.50;;;;;;4999715;28;20056;-81
2022/01/03 05:21:50;;;;;;;120.95;101.22;;;10.30;98.40;;;;;;4996343;28;20057;-81
2022/01/03 05:24:18;;;;;;;122.10;102.03;;;10.30;98.50;;;;;;4980255;28;20145;-81
2022/01/03 05:26:46;;;;;;;122.88;103.10;;;10.30;98.50;;;;;;4990852;28;20511;-81
2022/01/03 05:29:15;;;;;;;118.30;103.72;;;10.20;98.60;;;;;;4999450;28;20579;-81
2022/01/03 05:31:42;;;;;;;121.72;102.00;;;10.20;98.50;;;;;;4999596;28;20056;-81
2022/01/03 05:34:10;;;;;;;123.97;102.20;;;10.20;98.50;;;;;;5015925;28;20054;-81
2022/01/03 05:36:37;;;;;;;123.07;102.30;;;10.20;98.50;;;;;;4999644;28;20054;-81
2022/01/03 05:39:04;;;;;;;120.35;102.25;;;10.20;98.40;;;;;;4999099;28;20104;-81
2022/01/03 05:41:32;;;;;;;118.50;102.43;;;10.20;98.40;;;;;;5015827;28;20124;-81
2022/01/03 05:44:03;;;;;;;118.30;101.40;;;10.20;98.40;;;;;;4999077;28;20504;-81
2022/01/03 05:46:32;;;;;;;119.72;101.95;;;10.20;98.40;;;;;;5015878;28;20057;-81
2022/01/03 05:49:00;;;;;;;120.03;102.07;;;10.10;98.40;;;;;;5015574;28;20088;-81
2022/01/03 05:51:27;;;;;;;123.25;103.63;;;10.10;98.40;;;;;;5015787;28;20046;-81
2022/01/03 05:53:55;;;;;;;118.85;103.28;;;10.20;98.40;;;;;;4999583;28;20507;-81
2022/01/03 05:56:22;;;;;;;122.63;105.22;;;10.20;98.30;;;;;;4999435;28;20072;-82
2022/01/03 05:58:51;;;;;;;119.57;105.47;;;10.20;98.30;;;;;;4999157;28;20050;-81
2022/01/03 06:01:20;;;;;;;123.25;103.68;;;10.10;98.30;;;;;;4998991;28;20539;-81
2022/01/03 06:03:58;;;;;;;118.28;103.10;;;10.10;98.40;;;;;;5015684;28;20054;-82
2022/01/03 06:06:53;;;;;;;122.45;104.32;;;10.10;98.40;;;;;;5015515;28;20046;-81
2022/01/03 06:09:16;;;;;;;122.72;103.57;;;10.10;98.40;;;;;;4998790;28;20145;-81
2022/01/03 06:11:43;;;;;;;119.13;104.32;;;10.10;98.40;;;;;;4999125;28;20050;-81
2022/01/03 06:14:10;;;;;;;122.38;103.70;;;10.10;98.30;;;;;;5014763;28;20525;-81
2022/01/03 06:16:38;;;;;;;121.07;102.95;;;10.10;98.40;;;;;;4999064;28;20062;-81
2022/01/03 06:19:07;;;;;;;119.00;102.18;;;10.10;98.30;;;;;;5015273;28;20053;-81
2022/01/03 06:21:40;;;;;;;120.85;102.50;;;10.10;98.30;;;;;;4998814;28;20085;-81
2022/01/03 06:24:09;;;;;;;121.82;102.80;;;10.10;98.30;;;;;;4998886;28;20042;-80
2022/01/03 06:26:36;;;;;;;116.68;102.60;;;10.10;98.30;;;;;;5018538;28;20050;-80
2022/01/03 06:29:04;;;;;;;118.68;102.50;;;10.10;98.20;;;;;;5002163;28;20054;-81
2022/01/03 06:31:31;;;;;;;123.72;103.90;;;10.00;98.30;;;;;;5018609;28;20794;-81
2022/01/03 06:33:59;;;;;;;124.55;104.82;;;10.00;98.40;;;;;;5002294;28;20052;-81
2022/01/03 06:36:28;;;;;;;123.55;104.35;;;10.00;98.30;;;;;;5002309;28;20086;-82
2022/01/03 06:38:58;;;;;;;129.98;107.15;;;9.90;98.30;;;;;;5001834;28;20500;-81
2022/01/03 06:41:26;;;;;;;121.18;106.38;;;9.90;98.30;;;;;;5002489;28;20042;-81
2022/01/03 06:43:54;;;;;;;119.63;106.80;;;9.90;98.40;;;;;;5002206;28;20045;-81
2022/01/03 06:46:22;;;;;;;120.65;104.72;;;9.90;98.40;;;;;;5002051;28;20054;-81
2022/01/03 06:48:49;;;;;;;119.93;106.50;;;9.90;98.40;;;;;;5001748;28;20046;-81
2022/01/03 06:51:17;;;;;;;119.88;103.47;;;9.90;98.30;;;;;;5002006;28;20541;-81
2022/01/03 06:53:46;;;;;;;117.93;102.50;;;9.90;98.40;;;;;;5018376;28;20852;-81
2022/01/03 06:56:14;;;;;;;117.82;101.95;;;9.90;98.40;;;;;;5002075;28;20060;-81
2022/01/03 06:58:43;;;;;;;122.93;105.38;;;9.90;98.50;;;;;;5001458;28;20085;-81
2022/01/03 07:01:11;;;;;;;128.43;105.25;;;9.90;98.50;;;;;;5001651;28;20101;-81
2022/01/03 07:03:38;;;;;;;124.68;103.03;;;9.90;98.50;;;;;;5001778;28;20460;-81
2022/01/03 07:06:05;;;;;;;118.97;105.50;;;9.90;98.50;;;;;;5018194;28;20145;-81
2022/01/03 07:08:32;;;;;;;120.30;105.78;;;9.90;98.50;;;;;;5017899;28;20067;-81
2022/01/03 07:11:00;;;;;;;126.15;106.85;;;9.90;98.50;;;;;;5001646;28;20050;-81
2022/01/03 07:13:30;;;;;;;126.47;106.32;;;9.90;98.50;;;;;;5017680;28;20061;-81
2022/01/03 07:19:00;;;;;;;126.23;102.90;;;9.90;98.60;;;;;;5017651;28;20053;-81
2022/01/03 07:21:29;;;;;;;123.82;102.72;;;9.90;98.50;;;;;;5017980;28;20254;-81
2022/01/03 07:23:56;;;;;;;125.78;100.90;;;9.90;98.40;;;;;;5017573;28;20058;-81
2022/01/03 07:26:25;;;;;;;120.72;103.35;;;9.90;98.50;;;;;;5001146;28;20062;-81
2022/01/03 07:28:52;;;;;;;117.35;103.38;;;9.90;98.50;;;;;;4997763;28;20145;-81
2022/01/03 07:31:19;;;;;;;133.15;105.00;;;9.90;98.50;;;;;;4997778;28;20082;-81
2022/01/03 07:33:47;;;;;;;130.05;104.47;;;9.90;98.50;;;;;;5008950;28;20057;-81
2022/01/03 07:36:15;;;;;;;122.70;104.88;;;10.00;98.50;;;;;;5017501;28;20065;-81
2022/01/03 07:38:46;;;;;;;123.88;105.97;;;10.00;98.40;;;;;;5017420;28;20136;-81
2022/01/03 07:41:14;;;;;;;127.85;106.10;;;10.00;98.50;;;;;;5001105;28;20042;-81
2022/01/03 07:43:43;;;;;;;118.43;105.40;;;10.00;98.50;;;;;;5017480;28;20062;-81
2022/01/03 07:46:10;;;;;;;132.95;107.00;;;10.10;98.60;;;;;;5000997;28;20050;-81
2022/01/03 07:48:37;;;;;;;131.27;108.35;;;10.10;98.60;;;;;;5016897;28;20045;-81
2022/01/03 07:51:05;;;;;;;124.95;108.93;;;10.00;98.60;;;;;;5017159;28;20049;-81
2022/01/03 07:53:32;;;;;;;129.82;107.47;;;10.00;98.60;;;;;;4996367;28;20050;-81
2022/01/03 07:55:59;;;;;;;123.35;104.55;;;10.00;98.60;;;;;;4997423;28;20073;-81
2022/01/03 07:58:26;;;;;;;123.10;106.85;;;10.00;98.60;;;;;;4997342;28;20133;-81
2022/01/03 08:00:55;;;;;;;123.25;105.82;;;10.00;98.60;;;;;;4995612;28;20097;-82
2022/01/03 08:03:22;;;;;;;132.27;107.53;;;10.00;98.70;;;;;;4995776;28;20046;-81
2022/01/03 08:05:50;;;;;;;127.47;108.10;;;10.10;98.60;;;;;;5001018;28;20053;-81
2022/01/03 08:08:17;;;;;;;123.65;107.10;;;10.10;98.60;;;;;;4999318;28;20064;-81
2022/01/03 08:10:46;;;;;;;127.45;106.25;;;10.10;98.70;;;;;;4999056;28;20045;-81
2022/01/03 08:13:13;;;;;;;133.68;109.28;;;10.10;98.70;;;;;;5015210;28;20104;-81
2022/01/03 08:15:41;;;;;;;129.55;105.00;;;10.10;98.70;;;;;;5011962;28;20054;-79
2022/01/03 08:18:10;;;;;;;124.43;106.35;;;10.10;98.60;;;;;;5014257;28;20133;-82
2022/01/03 08:20:37;;;;;;;121.00;105.40;;;10.10;98.70;;;;;;4996105;28;20129;-81
2022/01/03 08:23:05;;;;;;;123.97;106.90;;;10.10;98.70;;;;;;4995533;28;20050;-81
2022/01/03 08:25:36;;;;;;;127.20;106.03;;;10.10;98.70;;;;;;4979569;28;20058;-81
2022/01/03 08:28:04;;;;;;;122.97;107.53;;;10.20;98.70;;;;;;5004960;28;20053;-80
2022/01/03 08:30:31;;;;;;;121.72;105.90;;;10.20;98.70;;;;;;5015041;28;20073;-80
2022/01/03 08:32:58;;;;;;;133.57;110.53;;;10.20;98.70;;;;;;4998965;28;20419;-81
2022/01/03 08:35:27;;;;;;;119.75;105.78;;;10.30;98.60;;;;;;5015044;28;20077;-80
2022/01/03 08:37:54;;;;;;;123.78;108.65;;;10.30;98.50;;;;;;5015150;28;20104;-81
2022/01/03 08:40:21;;;;;;;125.10;107.95;;;10.30;98.60;;;;;;4998400;28;20475;-81
2022/01/03 08:42:48;;;;;;;121.35;107.82;;;10.30;98.50;;;;;;5014940;28;20121;-81
2022/01/03 08:45:15;;;;;;;121.28;107.30;;;10.40;98.50;;;;;;5015179;28;20054;-80
2022/01/03 08:47:43;;;;;;;122.00;106.82;;;10.40;98.40;;;;;;5014401;28;20505;-80
2022/01/03 08:50:10;;;;;;;128.43;108.88;;;10.40;98.50;;;;;;5014429;28;20128;-80
2022/01/03 08:52:39;;;;;;;121.97;107.50;;;10.30;98.40;;;;;;5014717;28;20141;-81
2022/01/03 08:55:07;;;;;;;122.63;109.05;;;10.40;98.40;;;;;;4999147;28;20084;-87
2022/01/03 08:57:34;;;;;;;122.93;106.82;;;10.40;98.40;;;;;;4999207;28;20443;-83
2022/01/03 09:00:01;;;;;;;120.78;107.65;;;10.40;98.40;;;;;;4998366;28;20052;-83
2022/01/03 09:02:28;;;;;;;121.38;106.80;;;10.40;98.40;;;;;;4931089;28;20889;-82
2022/01/03 09:04:55;;;;;;;127.25;110.07;;;10.50;98.30;;;;;;4975004;28;20059;-82
2022/01/03 09:07:22;;;;;;;123.80;106.90;;;10.40;98.20;;;;;;4974989;28;20053;-84
2022/01/03 09:09:51;;;;;;;120.53;104.63;;;10.50;98.20;;;;;;4977578;28;20043;-88
2022/01/03 09:12:18;;;;;;;121.00;104.25;;;10.50;98.20;;;;;;4957804;28;20055;-82
2022/01/03 09:14:45;;;;;;;128.52;106.38;;;10.50;98.10;;;;;;4970546;28;20078;-81
2022/01/03 09:17:12;;;;;;;122.22;108.47;;;10.50;98.20;;;;;;4974072;28;20085;-80
2022/01/03 09:19:39;;;;;;;118.63;106.20;;;10.50;98.20;;;;;;4956691;28;20051;-81
2022/01/03 09:22:14;;;;;;;123.57;107.63;;;10.50;98.10;;;;;;4940156;28;20118;-82
2022/01/03 09:24:54;;;;;;;124.72;106.70;;;10.60;98.10;;;;;;4940717;28;20051;-86
2022/01/03 09:30:09;;;;;;;120.45;107.50;;;10.50;98.20;;;;;;4941490;28;20055;-81
2022/01/03 09:32:36;;;;;;;122.28;108.78;;;10.50;98.00;;;;;;4959002;28;20497;-79
2022/01/03 09:35:04;;;;;;;120.65;107.90;;;10.50;98.00;;;;;;4958592;28;20860;-82
2022/01/03 09:37:32;;;;;;;122.28;108.90;;;10.50;98.00;;;;;;4974582;28;20058;-83
2022/01/03 09:40:00;;;;;;;118.55;105.95;;;10.50;98.10;;;;;;4959689;28;20082;-85
2022/01/03 09:42:30;;;;;;;125.97;108.75;;;10.50;97.90;;;;;;4974864;28;20055;-82
2022/01/03 09:44:58;;;;;;;122.03;107.95;;;10.60;97.90;;;;;;4975541;28;20145;-80
2022/01/03 09:47:28;;;;;;;126.93;105.82;;;10.50;98.00;;;;;;4975198;28;20549;-84
2022/01/03 09:49:58;;;;;;;116.60;103.97;;;10.50;97.90;;;;;;4959282;28;20154;-82
2022/01/03 09:52:26;;;;;;;118.57;104.43;;;10.60;97.80;;;;;;4975001;28;20063;-81
2022/01/03 09:54:55;;;;;;;119.90;103.57;;;10.60;97.70;;;;;;4975386;28;20105;-85
2022/01/03 09:57:26;;;;;;;118.03;105.45;;;10.60;97.70;;;;;;4976035;28;20057;-84
2022/01/03 10:00:03;;;;;;;119.47;105.45;;;10.60;97.60;;;;;;4961063;28;20078;-89
2022/01/03 10:02:33;;;;;;;122.38;108.45;;;10.70;97.50;;;;;;4980958;28;20152;-85
2022/01/03 10:05:00;;;;;;;121.10;107.50;;;10.70;97.60;;;;;;4981155;28;20057;-84
2022/01/03 10:07:28;;;;;;;123.32;110.13;;;10.60;97.60;;;;;;4977452;28;20061;-80
2022/01/03 10:09:56;;;;;;;120.97;107.85;;;10.70;97.50;;;;;;4957660;28;20043;-79
2022/01/03 10:12:23;;;;;;;125.65;108.43;;;10.60;97.50;;;;;;4968927;28;20059;-82
2022/01/03 10:14:50;;;;;;;118.80;106.00;;;10.70;97.50;;;;;;4975728;28;20138;-78
2022/01/03 10:17:19;;;;;;;122.93;109.82;;;10.70;97.60;;;;;;4957287;28;20142;-79
2022/01/03 10:19:54;;;;;;;118.95;106.43;;;10.70;97.50;;;;;;4960387;28;20052;-78
2022/01/03 10:22:23;;;;;;;122.17;108.70;;;10.60;97.60;;;;;;4957255;28;20058;-78
2022/01/03 10:24:50;;;;;;;123.82;108.22;;;10.70;97.40;;;;;;4997002;28;21169;-82
2022/01/03 10:27:18;;;;;;;121.78;107.72;;;10.70;97.40;;;;;;4979616;28;20125;-81
2022/01/03 10:29:54;;;;;;;118.82;105.93;;;10.70;97.40;;;;;;4963430;28;20525;-81
2022/01/03 10:32:28;;;;;;;119.47;106.50;;;10.70;97.50;;;;;;4977806;28;20051;-81
2022/01/03 10:34:57;;;;;;;119.93;106.57;;;10.70;97.40;;;;;;4976918;28;20166;-80
2022/01/03 10:37:35;;;;;;;123.75;106.85;;;10.70;97.40;;;;;;4978489;28;20063;-82
2022/01/03 10:40:20;;;;;;;123.15;107.22;;;10.70;97.50;;;;;;4978965;28;20058;-82
2022/01/03 10:42:48;;;;;;;123.22;108.53;;;10.70;97.50;;;;;;4978838;28;20055;-83
2022/01/03 10:45:26;;;;;;;126.35;109.55;;;10.70;97.40;;;;;;4978814;28;20055;-84
2022/01/03 10:47:55;;;;;;;121.32;107.78;;;10.70;97.40;;;;;;4979317;28;20573;-83
2022/01/03 10:50:22;;;;;;;121.85;108.30;;;10.70;97.30;;;;;;4962807;28;20051;-82
2022/01/03 10:52:49;;;;;;;121.13;106.18;;;10.70;97.40;;;;;;4963193;28;20055;-81
2022/01/03 10:55:19;;;;;;;122.75;107.13;;;10.70;97.30;;;;;;4959966;28;20510;-82
2022/01/03 10:57:49;;;;;;;123.05;106.95;;;10.70;97.30;;;;;;4973054;28;20137;-83
2022/01/03 11:00:19;;;;;;;120.53;107.15;;;10.70;97.50;;;;;;4979168;28;20079;-82
2022/01/03 11:03:27;;;;;;;119.07;106.07;;;10.80;97.20;;;;;;4979111;28;20078;-82
2022/01/03 11:06:01;;;;;;;116.68;103.78;;;10.70;97.50;;;;;;4963134;28;20062;-81
2022/01/03 11:11:16;;;;;;;121.00;107.50;;;10.70;97.30;;;;;;4961436;28;20525;-79
2022/01/03 11:13:44;;;;;;;123.22;105.38;;;10.70;97.50;;;;;;4978062;28;20061;-83
2022/01/03 11:16:12;;;;;;;114.82;102.25;;;10.70;97.40;;;;;;4978383;28;20085;-83
2022/01/03 11:18:45;;;;;;;119.57;106.55;;;10.80;97.20;;;;;;4958207;28;20063;-81
2022/01/03 11:21:16;;;;;;;117.78;105.35;;;10.80;97.20;;;;;;4958527;28;20545;-85
2022/01/03 11:23:44;;;;;;;119.45;105.93;;;10.80;97.20;;;;;;4943728;28;20051;-86
2022/01/03 11:26:14;;;;;;;118.00;104.57;;;10.80;97.20;;;;;;4943830;28;20055;-85
2022/01/03 11:28:42;;;;;;;116.63;102.95;;;10.90;97.10;;;;;;4943588;28;20548;-85
2022/01/03 11:31:11;;;;;;;118.05;103.53;;;10.90;97.10;;;;;;4959508;28;20082;-83
2022/01/03 11:33:40;;;;;;;115.50;102.82;;;10.90;97.00;;;;;;4976900;28;20129;-82
2022/01/03 11:36:08;;;;;;;121.85;103.68;;;10.90;96.90;;;;;;4976927;28;20429;-84
2022/01/03 11:38:37;;;;;;;113.78;101.40;;;10.90;97.20;;;;;;4943023;28;20055;-82
2022/01/03 11:41:06;;;;;;;116.82;104.15;;;10.90;97.10;;;;;;4950642;28;20142;-81
2022/01/03 11:43:35;;;;;;;116.28;103.43;;;10.90;97.20;;;;;;4959017;28;20053;-81
2022/01/03 11:46:03;;;;;;;116.25;102.95;;;10.90;97.20;;;;;;4963607;28;20065;-84
2022/01/03 11:48:30;;;;;;;122.25;106.70;;;10.90;97.00;;;;;;4961776;28;20133;-82
2022/01/03 11:51:04;;;;;;;120.10;107.13;;;11.00;97.00;;;;;;4977933;28;20126;-82
2022/01/03 11:53:32;;;;;;;119.95;104.45;;;11.00;97.00;;;;;;4977735;28;20059;-82
2022/01/03 11:56:03;;;;;;;117.72;103.22;;;11.00;97.00;;;;;;4978089;28;20159;-81
2022/01/03 11:58:48;;;;;;;115.32;102.88;;;11.00;97.00;;;;;;4961850;28;20511;-82
2022/01/03 12:08:29;;;;;;;116.85;104.22;;;11.10;96.90;;;;;;4975836;28;20049;-80
2022/01/03 12:10:59;;;;;;;120.75;106.57;;;11.10;97.10;;;;;;4972422;28;20497;-80
2022/01/03 12:13:48;;;;;;;117.57;104.97;;;11.10;97.00;;;;;;4961900;28;20051;-81
2022/01/03 12:16:16;;;;;;;122.25;105.20;;;11.20;96.70;;;;;;4974508;28;20051;-82
2022/01/03 12:18:58;;;;;;;117.70;104.45;;;11.20;96.80;;;;;;4958332;28;20047;-80
2022/01/03 12:21:52;;;;;;;123.63;104.35;;;11.20;96.80;;;;;;4958699;28;20054;-82
2022/01/03 12:24:50;;;;;;;120.82;105.57;;;11.20;96.90;;;;;;4960967;28;20042;-79
2022/01/03 12:27:41;;;;;;;120.60;105.93;;;11.30;96.70;;;;;;4974264;28;20141;-79
2022/01/03 12:30:28;;;;;;;122.88;105.72;;;11.30;96.60;;;;;;4957797;28;20055;-79
2022/01/03 12:33:19;;;;;;;117.47;104.68;;;11.20;96.80;;;;;;4941361;28;20090;-79
2022/01/03 12:35:47;;;;;;;120.18;104.38;;;11.30;96.80;;;;;;4991356;28;20062;-81
2022/01/03 12:38:22;;;;;;;118.38;103.82;;;11.30;96.80;;;;;;4961159;28;20535;-80
2022/01/03 12:40:57;;;;;;;116.68;101.78;;;11.30;96.80;;;;;;4977755;28;20058;-82